ADDS METAR Data INFO
IDs: Format: Raw Decoded Include TAF

Data at: 2028 UTC 22 Feb 2018

KDHN 221953Z 10003KT 10SM SCT060 27/17 A3038 RMK AO2 SLP282 T02720167
KDHN 221853Z 11006KT 10SM BKN035 BKN060 27/17 A3041 RMK AO2 SLP292 T02670172
KDHN 221753Z 16009KT 10SM FEW032 SCT048 27/17 A3043 RMK AO2 SLP299 60000 T02670172 10272 20161 58008
KDHN 221653Z 18008KT 10SM CLR 26/17 A3044 RMK AO2 SLP304 T02610172
KDHN 221553Z 17010KT 10SM FEW019 24/18 A3046 RMK AO2 SLP308 T02440178
KDHN 221453Z 15009KT 10SM CLR 23/18 A3045 RMK AO2 SLP307 60000 T02280183 51012
KDHN 221353Z 14006KT 5SM BR FEW050 20/18 A3044 RMK AO2 RAE1255 SLP304 P0000 T02000178
KDHN 221328Z 11005KT 3SM BR BKN050 19/18 A3044 RMK AO2 RAE1255 P0000 T01940178
KDHN 221253Z 09003KT 2SM -RA BR OVC049 18/17 A3044 RMK AO2 RAB34 SLP303 P0000 T01780172
KDHN 221243Z 10004KT 1 1/4SM -RA BR OVC048 17/17 A3043 RMK AO2 RAB34 P0000 T01720167
KDHN 221234Z 10004KT 3/4SM -RA BR BKN048 17/16 A3043 RMK AO2 RAB34 P0000 T01720161 RVRNO
KDHN 221218Z 09003KT 1/4SM FG SCT048 16/16 A3043 RMK AO2 T01610156 RVRNO
KDHN 221204Z 00000KT 1/4SM FG VV012 17/15 A3042 RMK AO2 T01670150 RVRNO
KDHN 221201Z 00000KT 1/2SM FG CLR 17/15 A3042 RMK AO2 T01670150 RVRNO
KDHN 221153Z 00000KT 1SM BR VV010 16/16 A3041 RMK AO2 SLP295 T01610156 10183 20156 53013 RVRNO
KDHN 221142Z AUTO 11003KT 1 1/4SM BR FEW010 17/16 A3041 RMK AO2 T01670161
KDHN 221129Z AUTO 12003KT 1/2SM FG FEW011 FEW050 17/16 A3041 RMK AO2 T01670156 RVRNO
KDHN 221117Z AUTO 00000KT 1 1/2SM BR FEW037 SCT050 17/16 A3040 RMK AO2 T01720161
KDHN 221053Z AUTO 11003KT 2 1/2SM BR BKN050 18/17 A3040 RMK AO2 SLP290 T01780167
KDHN 220953Z AUTO 10003KT 2SM BR BKN043 OVC050 18/17 A3039 RMK AO2 SLP284 T01780167
KDHN 220926Z AUTO 11003KT 2 1/2SM BR BKN040 18/17 A3038 RMK AO2 T01830172
KDHN 220904Z AUTO 11003KT 1 1/4SM BR CLR 17/16 A3037 RMK AO2 T01670156
KDHN 220853Z AUTO 12004KT 3/4SM BR CLR 16/15 A3038 RMK AO2 SLP282 T01610150 56002 RVRNO
KDHN 220837Z AUTO 11003KT 3/4SM BR CLR 16/15 A3038 RMK AO2 T01610150 RVRNO
KDHN 220819Z AUTO 00000KT 1SM BR CLR 16/14 A3038 RMK AO2 T01610144 RVRNO
KDHN 220753Z AUTO 00000KT 2 1/2SM BR CLR 16/15 A3038 RMK AO2 SLP282 T01610150
KDHN 220732Z AUTO 00000KT 2 1/2SM BR CLR 17/16 A3038 RMK AO2 T01670156
KDHN 220719Z AUTO 00000KT 1SM BR CLR 17/16 A3038 RMK AO2 T01670161 RVRNO
KDHN 220708Z AUTO 15003KT 2SM BR CLR 18/17 A3038 RMK AO2 T01780167
KDHN 220653Z AUTO 16004KT 3SM BR CLR 18/17 A3038 RMK AO2 SLP282 T01780167
KDHN 220553Z AUTO 14005KT 5SM BR CLR 18/17 A3038 RMK AO2 SLP284 T01780167 10244 20178 58004
KDHN 220453Z AUTO 20003KT 4SM HZ CLR 19/17 A3039 RMK AO2 SLP286 T01940167 402940178
KDHN 220353Z AUTO 23004KT 3SM HZ CLR 21/17 A3040 RMK AO2 SLP290 T02060172
KDHN 212353Z 15006KT 10SM CLR 24/16 A3034 RMK AO2 SLP270 T02390156 10294 20239 53007
KDHN 212253Z 16013KT 10SM SCT049 SCT060 27/15 A3032 RMK AO2 SLP263 T02670150
KDHN 212153Z 13013KT 10SM SCT049 SCT060 28/16 A3032 RMK AO2 SLP260 T02830161
KDHN 212053Z 18013G18KT 10SM FEW049 BKN065 28/15 A3032 RMK AO2 SLP261 T02780150 56024
KDHN 211953Z 17012G20KT 10SM FEW060 29/16 A3034 RMK AO2 SLP267 T02890156
KDHN 211853Z 18011G17KT 10SM FEW036 BKN065 28/17 A3036 RMK AO2 SLP275 T02780167
KDHN 211753Z 18010KT 10SM BKN034 BKN045 BKN050 26/17 A3039 RMK AO2 SLP285 T02560172 10272 20200 58007
KDHN 211707Z 17012KT 10SM FEW023 BKN034 BKN044 26/18 A3041 RMK AO2 T02610178
KDHN 211653Z 17010KT 10SM FEW018 SCT024 BKN029 26/18 A3041 RMK AO2 SLP291 T02610183
KDHN 211601Z 17011KT 10SM BKN016 OVC023 24/19 A3042 RMK AO2 T02390194
KDHN 211553Z 16009KT 10SM BKN014 OVC019 23/19 A3041 RMK AO2 SLP294 T02330194
KDHN 211500Z 15008KT 9SM BKN010 OVC026 22/19 A3041 RMK AO2 T02220194
KDHN 211453Z 15009KT 9SM BKN008 OVC027 22/19 A3041 RMK AO2 SLP294 T02170194 51013
KDHN 211441Z 15010KT 9SM BKN010 BKN025 OVC033 22/19 A3041 RMK AO2 T02170194
KDHN 211353Z 16008KT 9SM BKN009 OVC033 21/19 A3041 RMK AO2 SLP293 T02110189
KDHN 211253Z 14006KT 7SM OVC007 21/19 A3039 RMK AO2 SLP288 T02060189